Torrelodones, Spain
Current Conditions -  °F | °C
As of 2:30 PM on Monday 24 Nov 2014 (Local Time) from LEVS Reporting Station
Clear Clear  
Wind Chill: 68°   Ceiling: Unl
Heat Index: 68°   Visibility: 6mi
Dew Point: 48°   Wind: 1mph
Humidity: 49%   Direction: NA
Pressure: 30.03"   Gusts: NA
Location:  40.58°N, 3.93°W
Report Text: LEVS 241330Z VRB01KT CAVOK 20/09 Q1017
Loading
Personal Weather Stations






























Interactive Weather Map New forecast layout! Learn more

10-Day Weather Forecast

Advertisements
Track Severe Weather on mobile